createdAt,value
2022-12-16T00:01:27.757Z,19.80
2022-12-16T00:03:31.146Z,21.17
2022-12-16T00:05:42.714Z,21.00
2022-12-16T00:07:47.404Z,21.77
2022-12-16T00:09:50.371Z,21.90
2022-12-16T00:11:54.738Z,20.97
2022-12-16T00:13:57.765Z,20.70
2022-12-16T00:16:06.384Z,19.67
2022-12-16T00:18:09.604Z,20.93
2022-12-16T00:20:13.546Z,23.57
2022-12-16T00:22:16.586Z,19.63
2022-12-16T00:24:19.726Z,19.40
2022-12-16T00:26:22.720Z,20.93
2022-12-16T00:28:26.120Z,19.63
2022-12-16T00:30:29.026Z,19.10
2022-12-16T00:32:33.370Z,21.00
2022-12-16T00:34:36.249Z,18.80
2022-12-16T00:36:39.138Z,16.77
2022-12-16T00:38:42.117Z,15.73
2022-12-16T00:40:45.667Z,18.07
2022-12-16T00:42:48.548Z,19.87
2022-12-16T00:44:51.511Z,20.30
2022-12-16T00:46:54.991Z,18.47
2022-12-16T00:48:59.799Z,15.73
2022-12-16T00:51:02.800Z,13.87
2022-12-16T00:53:06.509Z,15.30
2022-12-16T00:55:10.307Z,17.20
2022-12-16T00:57:13.247Z,18.87
2022-12-16T00:59:16.356Z,15.83
2022-12-16T01:01:19.821Z,16.53
2022-12-16T01:03:22.831Z,16.83
2022-12-16T01:05:27.772Z,17.93
2022-12-16T01:07:30.810Z,15.70
2022-12-16T01:09:34.984Z,15.53
2022-12-16T01:11:37.813Z,16.97
2022-12-16T01:13:40.774Z,19.70
2022-12-16T01:15:43.876Z,19.17
2022-12-16T01:17:47.314Z,19.03
2022-12-16T01:19:50.335Z,15.63
2022-12-16T01:21:54.737Z,17.40
2022-12-16T01:23:57.850Z,20.70
2022-12-16T01:26:02.523Z,20.57
2022-12-16T01:28:05.691Z,17.80
2022-12-16T01:30:10.104Z,23.83
2022-12-16T01:32:14.784Z,18.97
2022-12-16T01:34:18.167Z,20.83
2022-12-16T01:36:21.687Z,17.83
2022-12-16T01:38:26.057Z,21.77
2022-12-16T01:40:29.081Z,22.80
2022-12-16T01:42:33.594Z,26.70
2022-12-16T01:44:36.594Z,27.30
2022-12-16T01:46:39.609Z,23.37
2022-12-16T01:48:47.784Z,21.37
2022-12-16T01:50:53.185Z,28.43
2022-12-16T01:53:00.145Z,20.30
2022-12-16T01:55:09.446Z,23.47
2022-12-16T01:57:16.914Z,24.43
2022-12-16T01:59:21.166Z,19.27
2022-12-16T02:01:24.661Z,21.27
2022-12-16T02:03:31.119Z,21.57
2022-12-16T02:05:35.661Z,20.83
2022-12-16T02:07:38.659Z,24.37
2022-12-16T02:09:41.560Z,20.67
2022-12-16T02:12:13.301Z,21.73
2022-12-16T02:14:40.498Z,20.53
2022-12-16T02:16:52.651Z,18.77
2022-12-16T02:19:11.088Z,21.10
2022-12-16T02:21:49.064Z,20.57
2022-12-16T02:24:25.839Z,19.40
2022-12-16T02:26:47.123Z,14.17
2022-12-16T02:29:22.902Z,22.20
2022-12-16T02:31:35.004Z,24.80
2022-12-16T02:33:56.128Z,17.10
2022-12-16T02:36:07.997Z,22.17
2022-12-16T02:38:22.804Z,20.97
2022-12-16T02:40:29.319Z,19.47
2022-12-16T02:42:35.625Z,14.93
2022-12-16T02:44:56.205Z,16.43
2022-12-16T02:47:00.458Z,18.53
2022-12-16T02:49:08.352Z,19.60
2022-12-16T02:51:11.683Z,16.00
2022-12-16T02:53:14.845Z,13.40
2022-12-16T02:55:18.523Z,16.07
2022-12-16T02:58:01.286Z,16.73
2022-12-16T03:00:07.865Z,17.17
2022-12-16T03:02:20.492Z,16.10
2022-12-16T03:04:29.393Z,16.03
2022-12-16T03:06:34.307Z,14.00
2022-12-16T03:08:41.678Z,14.73
2022-12-16T03:10:54.812Z,19.33
2022-12-16T03:13:00.800Z,17.47
2022-12-16T03:15:04.683Z,15.23
2022-12-16T03:17:09.668Z,14.10
2022-12-16T03:19:14.693Z,12.67
2022-12-16T03:21:19.279Z,17.47
2022-12-16T03:23:29.231Z,14.13
2022-12-16T03:25:35.624Z,14.07
2022-12-16T03:27:47.169Z,14.33
2022-12-16T03:29:55.388Z,16.87
2022-12-16T03:32:03.241Z,18.77
2022-12-16T03:34:13.730Z,19.20
2022-12-16T03:36:22.906Z,18.37
2022-12-16T03:38:27.765Z,20.83
2022-12-16T03:40:32.993Z,14.27
2022-12-16T03:42:37.463Z,17.97
2022-12-16T03:44:40.599Z,20.27
2022-12-16T03:46:43.597Z,17.17
2022-12-16T03:48:48.181Z,19.03
2022-12-16T03:50:51.321Z,20.43
2022-12-16T03:52:55.820Z,17.70
2022-12-16T03:54:58.885Z,15.03
2022-12-16T03:57:01.952Z,14.03
2022-12-16T03:59:04.936Z,15.13
2022-12-16T04:01:09.518Z,14.47
2022-12-16T04:03:12.647Z,15.57
2022-12-16T04:05:16.121Z,16.10
2022-12-16T04:07:21.682Z,14.20
2022-12-16T04:09:25.970Z,13.37
2022-12-16T04:11:46.500Z,14.13
2022-12-16T04:14:07.004Z,14.83
2022-12-16T04:16:29.708Z,16.17
2022-12-16T04:18:51.092Z,11.67
2022-12-16T04:21:14.142Z,13.03
2022-12-16T04:23:35.602Z,15.60
2022-12-16T04:25:40.204Z,13.00
2022-12-16T04:27:47.127Z,12.17
2022-12-16T04:30:07.902Z,15.93
2022-12-16T04:32:11.098Z,12.50
2022-12-16T04:34:29.392Z,16.53
2022-12-16T04:36:50.187Z,11.30
2022-12-16T04:39:19.436Z,10.50
2022-12-16T04:41:41.037Z,12.37
2022-12-16T04:44:01.951Z,10.40
2022-12-16T04:46:22.663Z,12.07
2022-12-16T04:48:43.123Z,15.87
2022-12-16T04:51:03.998Z,12.87
2022-12-16T04:53:24.532Z,14.67
2022-12-16T04:55:44.843Z,19.73
2022-12-16T04:58:21.201Z,15.47
2022-12-16T05:00:55.913Z,18.50
2022-12-16T05:03:16.617Z,12.50
2022-12-16T05:05:33.520Z,14.23
2022-12-16T05:07:53.904Z,49.83
2022-12-16T05:10:14.629Z,51.07
2022-12-16T05:12:34.951Z,34.00
2022-12-16T05:14:57.151Z,20.70
2022-12-16T05:17:17.765Z,26.30
2022-12-16T05:19:38.476Z,20.13
2022-12-16T05:22:01.235Z,18.73
2022-12-16T05:24:21.887Z,17.93
2022-12-16T05:26:42.087Z,20.67
2022-12-16T05:29:02.343Z,19.47
2022-12-16T05:31:24.061Z,21.50
2022-12-16T05:33:44.825Z,18.10
2022-12-16T05:36:05.296Z,19.37
2022-12-16T05:38:25.577Z,21.60
2022-12-16T05:40:45.328Z,20.57
2022-12-16T05:43:06.549Z,21.97
2022-12-16T05:45:27.138Z,21.27
2022-12-16T05:47:48.633Z,20.90
2022-12-16T05:50:08.850Z,27.93
2022-12-16T05:52:29.614Z,23.40
2022-12-16T05:54:50.053Z,20.50
2022-12-16T05:57:10.507Z,24.23
2022-12-16T05:59:36.241Z,30.90
2022-12-16T06:01:56.616Z,25.20
2022-12-16T06:04:18.758Z,26.87
2022-12-16T06:06:39.413Z,28.77
2022-12-16T06:09:00.055Z,27.57
2022-12-16T06:11:20.557Z,28.27
2022-12-16T06:13:40.883Z,27.90
2022-12-16T06:16:06.639Z,28.40
2022-12-16T06:18:28.639Z,36.07
2022-12-16T06:20:46.894Z,79.10
2022-12-16T06:23:10.042Z,33.77
2022-12-16T06:25:30.665Z,47.57
2022-12-16T06:27:51.260Z,47.73
2022-12-16T06:30:13.791Z,41.10
2022-12-16T06:32:34.650Z,38.63
2022-12-16T06:34:55.086Z,31.87
2022-12-16T06:37:16.911Z,35.03
2022-12-16T06:39:37.359Z,35.60
2022-12-16T06:41:57.646Z,44.33
2022-12-16T06:44:18.245Z,41.17
2022-12-16T06:46:38.448Z,35.37
2022-12-16T06:48:58.794Z,33.87
2022-12-16T06:51:19.314Z,40.17
2022-12-16T06:53:41.473Z,38.67
2022-12-16T06:56:02.008Z,38.20
2022-12-16T06:58:22.441Z,34.87
2022-12-16T07:00:43.136Z,39.73
2022-12-16T07:03:04.579Z,36.87
2022-12-16T07:05:25.416Z,35.10
2022-12-16T07:07:46.002Z,37.50
2022-12-16T07:10:07.630Z,32.20
2022-12-16T07:12:28.088Z,36.07
2022-12-16T07:14:48.462Z,41.60
2022-12-16T07:17:12.395Z,32.87
2022-12-16T07:19:37.227Z,36.83
2022-12-16T07:22:00.035Z,33.23
2022-12-16T07:24:20.541Z,42.37
2022-12-16T07:26:42.194Z,30.37
2022-12-16T07:29:14.076Z,36.93
2022-12-16T07:31:35.079Z,31.87
2022-12-16T07:33:55.476Z,30.33
2022-12-16T07:36:15.834Z,34.07
2022-12-16T07:38:36.232Z,26.73
2022-12-16T07:40:57.094Z,26.37
2022-12-16T07:43:19.071Z,31.67
2022-12-16T07:45:44.897Z,28.70
2022-12-16T07:48:06.019Z,30.30
2022-12-16T07:50:27.409Z,32.40
2022-12-16T07:52:49.750Z,26.67
2022-12-16T07:55:11.432Z,31.97
2022-12-16T07:57:32.081Z,24.07
2022-12-16T07:59:54.053Z,22.60
2022-12-16T08:02:14.544Z,17.67
2022-12-16T08:04:34.918Z,20.07
2022-12-16T08:06:55.388Z,14.73
2022-12-16T08:09:15.897Z,15.40
2022-12-16T08:11:36.206Z,11.47
2022-12-16T08:13:59.045Z,10.53
2022-12-16T08:16:35.427Z,11.00
2022-12-16T08:18:56.897Z,14.93
2022-12-16T08:21:17.551Z,11.27
2022-12-16T08:23:37.958Z,12.30
2022-12-16T08:25:58.340Z,12.20
2022-12-16T08:28:19.111Z,11.87
2022-12-16T08:30:39.497Z,11.87
2022-12-16T08:33:09.436Z,18.03
2022-12-16T08:35:35.956Z,14.37
2022-12-16T08:37:56.307Z,22.40
2022-12-16T08:40:34.940Z,14.07
2022-12-16T08:42:56.360Z,12.50
2022-12-16T08:45:16.860Z,13.20
2022-12-16T08:47:37.561Z,14.30
2022-12-16T08:50:01.723Z,13.47
2022-12-16T08:52:28.729Z,19.03
2022-12-16T08:54:48.978Z,14.50
2022-12-16T08:57:09.286Z,15.17
2022-12-16T08:59:29.788Z,11.20
2022-12-16T09:01:50.506Z,18.70
2022-12-16T09:04:13.932Z,14.23
2022-12-16T09:06:40.440Z,14.30
2022-12-16T09:09:01.414Z,14.77
2022-12-16T09:11:21.722Z,16.03
2022-12-16T09:13:42.028Z,14.00
2022-12-16T09:16:02.649Z,10.20
2022-12-16T09:18:19.593Z,11.10
2022-12-16T09:20:39.942Z,13.43
2022-12-16T09:23:01.954Z,13.23
2022-12-16T09:25:22.702Z,13.20
2022-12-16T09:27:43.273Z,13.03
2022-12-16T09:30:03.576Z,26.63
2022-12-16T09:32:24.021Z,17.77
2022-12-16T09:34:44.607Z,13.13
2022-12-16T09:37:05.234Z,12.40
2022-12-16T09:39:26.819Z,11.77
2022-12-16T09:42:01.120Z,10.07
2022-12-16T09:44:28.605Z,11.57
2022-12-16T09:47:02.088Z,13.13
2022-12-16T09:49:35.955Z,12.83
2022-12-16T09:52:05.742Z,12.40
2022-12-16T09:54:33.622Z,10.47
2022-12-16T09:56:55.475Z,11.80
2022-12-16T09:59:19.965Z,11.30
2022-12-16T10:01:41.223Z,12.60
2022-12-16T10:04:01.944Z,9.30
2022-12-16T10:06:30.410Z,15.30
2022-12-16T10:08:58.759Z,8.40
2022-12-16T10:11:30.702Z,8.97
2022-12-16T10:13:58.835Z,9.47
2022-12-16T10:16:27.320Z,9.60
2022-12-16T10:19:00.573Z,10.73
2022-12-16T10:21:22.608Z,9.00
2022-12-16T10:23:50.343Z,12.90
2022-12-16T10:26:16.579Z,11.03
2022-12-16T10:28:53.886Z,9.80
2022-12-16T10:31:16.561Z,9.87
2022-12-16T10:33:39.325Z,13.87
2022-12-16T10:36:04.431Z,14.07
2022-12-16T10:38:33.223Z,12.97
2022-12-16T10:40:54.303Z,14.83
2022-12-16T10:43:31.220Z,15.63
2022-12-16T10:45:56.503Z,14.83
2022-12-16T10:48:16.974Z,12.33
2022-12-16T10:50:37.421Z,37.60
2022-12-16T10:53:08.099Z,14.53
2022-12-16T10:55:43.665Z,13.23
2022-12-16T10:58:15.121Z,21.20
2022-12-16T11:00:38.853Z,15.70
2022-12-16T11:03:03.089Z,12.10
2022-12-16T11:05:50.227Z,16.47
2022-12-16T11:08:08.363Z,18.13
2022-12-16T11:10:54.459Z,17.37
2022-12-16T11:13:38.761Z,16.63
2022-12-16T11:16:02.586Z,18.07
2022-12-16T11:18:28.514Z,16.37
2022-12-16T11:20:49.125Z,14.20
2022-12-16T11:23:27.172Z,16.57
2022-12-16T11:25:47.606Z,13.67
2022-12-16T11:28:08.042Z,14.30
2022-12-16T11:30:37.619Z,16.13
2022-12-16T11:33:02.349Z,14.60
2022-12-16T11:35:30.045Z,12.87
2022-12-16T11:37:50.568Z,15.20
2022-12-16T11:40:10.921Z,13.50
2022-12-16T11:42:39.968Z,15.67
2022-12-16T11:45:05.498Z,17.10
2022-12-16T11:47:34.799Z,12.73
2022-12-16T11:49:55.376Z,13.93
2022-12-16T11:52:36.741Z,19.33
2022-12-16T11:55:08.732Z,18.70
2022-12-16T11:57:37.744Z,18.57
2022-12-16T12:00:00.797Z,18.73
2022-12-16T12:02:28.784Z,17.07
2022-12-16T12:04:49.316Z,20.40
2022-12-16T12:07:25.026Z,21.20
2022-12-16T12:09:46.898Z,22.30
2022-12-16T12:12:13.198Z,25.37
2022-12-16T12:14:56.500Z,29.60
2022-12-16T12:17:29.897Z,22.83
2022-12-16T12:20:01.941Z,21.20
2022-12-16T12:22:31.341Z,21.17
2022-12-16T12:25:01.133Z,20.10
2022-12-16T12:27:27.580Z,17.13
2022-12-16T12:30:01.522Z,24.73
2022-12-16T12:32:29.964Z,24.60
2022-12-16T12:34:59.170Z,21.20
2022-12-16T12:37:27.130Z,22.33
2022-12-16T12:39:53.775Z,19.97
2022-12-16T12:42:28.495Z,18.97
2022-12-16T12:45:10.712Z,22.47
2022-12-16T12:47:31.974Z,21.57
2022-12-16T12:50:00.826Z,21.33
2022-12-16T12:52:30.306Z,21.23
2022-12-16T12:54:56.431Z,20.90
2022-12-16T12:57:19.008Z,24.07
2022-12-16T12:59:43.006Z,23.63
2022-12-16T13:02:06.082Z,22.57
2022-12-16T13:04:31.976Z,20.73
2022-12-16T13:06:54.249Z,24.90
2022-12-16T13:09:23.910Z,24.03
2022-12-16T13:11:44.000Z,22.87
2022-12-16T13:14:04.353Z,24.53
2022-12-16T13:16:29.787Z,34.90
2022-12-16T13:18:51.009Z,23.23
2022-12-16T13:21:13.843Z,23.03
2022-12-16T13:23:56.306Z,24.63
2022-12-16T13:26:23.808Z,26.27
2022-12-16T13:28:47.884Z,22.77
2022-12-16T13:31:25.184Z,21.83
2022-12-16T13:33:48.098Z,18.47
2022-12-16T13:36:13.545Z,21.30
2022-12-16T13:38:40.047Z,20.90
2022-12-16T13:41:12.862Z,22.17
2022-12-16T13:44:03.747Z,21.37
2022-12-16T13:46:35.856Z,19.17
2022-12-16T13:48:58.504Z,18.03
2022-12-16T13:51:19.357Z,19.47
2022-12-16T13:53:41.639Z,21.50
2022-12-16T13:56:13.237Z,14.83
2022-12-16T13:58:48.290Z,19.30
2022-12-16T14:01:21.601Z,16.37
2022-12-16T14:03:54.496Z,18.80
2022-12-16T14:06:14.853Z,18.07
2022-12-16T14:08:37.953Z,17.67
2022-12-16T14:11:01.435Z,21.17
2022-12-16T14:13:25.803Z,29.03
2022-12-16T14:15:52.811Z,19.87
2022-12-16T14:18:18.289Z,22.30
2022-12-16T14:20:44.296Z,20.63
2022-12-16T14:23:32.369Z,19.13
2022-12-16T14:25:54.716Z,18.23
2022-12-16T14:28:16.825Z,18.17
2022-12-16T14:30:40.148Z,16.27
2022-12-16T14:33:02.208Z,17.07
2022-12-16T14:35:25.633Z,19.37
2022-12-16T14:37:53.067Z,16.43
2022-12-16T14:40:14.623Z,29.70
2022-12-16T14:42:38.972Z,28.60
2022-12-16T14:45:02.888Z,145.93
2022-12-16T14:47:22.847Z,111.13
2022-12-16T14:49:48.762Z,115.80
2022-12-16T14:52:09.583Z,73.40
2022-12-16T14:54:42.911Z,83.57
2022-12-16T14:57:05.631Z,81.80
2022-12-16T14:59:32.426Z,37.80
2022-12-16T15:01:54.225Z,28.53
2022-12-16T15:04:15.530Z,26.70
2022-12-16T15:06:44.565Z,22.37
2022-12-16T15:09:08.986Z,37.83
2022-12-16T15:11:33.365Z,37.03
2022-12-16T15:13:57.819Z,33.80
2022-12-16T15:16:23.303Z,29.90
2022-12-16T15:18:49.390Z,27.37
2022-12-16T15:21:11.739Z,25.30
2022-12-16T15:23:39.770Z,23.87
2022-12-16T15:26:05.796Z,24.50
2022-12-16T15:28:42.444Z,26.77
2022-12-16T15:31:04.876Z,24.07
2022-12-16T15:33:25.390Z,23.33
2022-12-16T15:35:52.386Z,25.53
2022-12-16T15:38:16.053Z,25.87
2022-12-16T15:40:44.586Z,23.47
2022-12-16T15:43:09.653Z,25.27
2022-12-16T15:45:41.536Z,28.17
2022-12-16T15:48:01.921Z,31.57
2022-12-16T15:50:24.944Z,31.60
2022-12-16T15:52:53.460Z,28.53
2022-12-16T15:55:13.644Z,35.73
2022-12-16T15:57:47.517Z,30.03
2022-12-16T16:00:15.710Z,36.37
2022-12-16T16:02:41.172Z,31.93
2022-12-16T16:05:01.903Z,32.67
2022-12-16T16:07:22.479Z,35.63
2022-12-16T16:09:45.627Z,30.13
2022-12-16T16:12:06.151Z,32.93
2022-12-16T16:14:44.101Z,32.37
2022-12-16T16:17:07.776Z,31.03
2022-12-16T16:19:39.067Z,26.30
2022-12-16T16:21:59.302Z,28.30
2022-12-16T16:24:19.987Z,35.50
2022-12-16T16:26:45.250Z,29.20
2022-12-16T16:29:05.624Z,28.20
2022-12-16T16:31:29.198Z,28.03
2022-12-16T16:33:49.681Z,35.17
2022-12-16T16:36:10.090Z,33.83
2022-12-16T16:38:31.161Z,38.47
2022-12-16T16:40:55.580Z,32.47
2022-12-16T16:43:15.961Z,30.20
2022-12-16T16:45:36.441Z,31.30
2022-12-16T16:47:58.377Z,33.20
2022-12-16T16:50:19.606Z,31.50
2022-12-16T16:52:43.185Z,33.57
2022-12-16T16:55:03.656Z,32.60
2022-12-16T16:57:24.688Z,32.37
2022-12-16T16:59:45.089Z,29.87
2022-12-16T17:02:05.963Z,35.03
2022-12-16T17:04:27.738Z,28.97
2022-12-16T17:06:48.378Z,33.97
2022-12-16T17:09:08.963Z,30.77
2022-12-16T17:11:37.011Z,34.63
2022-12-16T17:13:57.410Z,36.47
2022-12-16T17:16:17.923Z,34.33
2022-12-16T17:18:43.737Z,35.87
2022-12-16T17:21:07.153Z,34.30
2022-12-16T17:23:27.386Z,30.07
2022-12-16T17:25:48.144Z,29.07
2022-12-16T17:28:08.813Z,33.37
2022-12-16T17:30:34.555Z,27.40
2022-12-16T17:32:55.074Z,36.13
2022-12-16T17:35:16.300Z,27.90
2022-12-16T17:38:01.257Z,39.60
2022-12-16T17:40:22.174Z,32.80
2022-12-16T17:42:46.481Z,27.37
2022-12-16T17:45:07.533Z,23.53
2022-12-16T17:47:27.854Z,31.10
2022-12-16T17:49:48.134Z,26.63
2022-12-16T17:52:08.727Z,31.00
2022-12-16T17:54:30.595Z,26.40
2022-12-16T17:56:51.010Z,25.23
2022-12-16T17:59:11.588Z,29.20
2022-12-16T18:01:32.157Z,22.90
2022-12-16T18:03:52.729Z,24.23
2022-12-16T18:06:15.185Z,18.93
2022-12-16T18:08:36.103Z,23.37
2022-12-16T18:10:59.441Z,23.97
2022-12-16T18:13:19.989Z,23.13
2022-12-16T18:15:40.304Z,23.83
2022-12-16T18:18:00.812Z,31.63
2022-12-16T18:20:21.345Z,24.53
2022-12-16T18:22:41.664Z,26.90
2022-12-16T18:25:02.241Z,33.10
2022-12-16T18:27:24.155Z,36.63
2022-12-16T18:29:44.373Z,33.50
2022-12-16T18:32:06.494Z,45.17
2022-12-16T18:34:27.028Z,43.20
2022-12-16T18:36:47.231Z,41.93
2022-12-16T18:39:07.820Z,51.50
2022-12-16T18:41:34.490Z,32.47
2022-12-16T18:44:04.568Z,36.57
2022-12-16T18:46:24.995Z,33.57
2022-12-16T18:48:45.576Z,36.83
2022-12-16T18:51:12.123Z,36.00
2022-12-16T18:53:33.108Z,30.83
2022-12-16T18:55:53.685Z,32.70
2022-12-16T18:58:34.801Z,37.07
2022-12-16T19:00:56.252Z,37.50
2022-12-16T19:03:16.839Z,41.67
2022-12-16T19:05:37.531Z,37.43
2022-12-16T19:07:58.052Z,35.30
2022-12-16T19:10:18.625Z,27.97
2022-12-16T19:12:39.275Z,28.80
2022-12-16T19:14:59.584Z,32.17
2022-12-16T19:17:21.441Z,37.77
2022-12-16T19:19:41.700Z,36.07
2022-12-16T19:22:02.271Z,39.50
2022-12-16T19:24:23.380Z,31.13
2022-12-16T19:26:43.945Z,42.80
2022-12-16T19:29:04.708Z,34.27
2022-12-16T19:31:29.530Z,38.40
2022-12-16T19:33:56.674Z,36.43
2022-12-16T19:36:17.452Z,34.60
2022-12-16T19:38:38.833Z,32.60
2022-12-16T19:41:13.323Z,23.07
2022-12-16T19:43:34.627Z,28.93
2022-12-16T19:45:56.264Z,25.17
2022-12-16T19:48:20.518Z,34.97
2022-12-16T19:50:56.405Z,26.60
2022-12-16T19:53:19.553Z,31.87
2022-12-16T19:55:39.835Z,25.20
2022-12-16T19:58:00.084Z,25.57
2022-12-16T20:00:20.312Z,25.17
2022-12-16T20:02:40.241Z,26.27
2022-12-16T20:05:00.782Z,29.10
2022-12-16T20:07:23.465Z,30.83
2022-12-16T20:09:44.007Z,26.93
2022-12-16T20:12:04.451Z,26.27
2022-12-16T20:14:27.541Z,26.97
2022-12-16T20:16:48.153Z,22.50
2022-12-16T20:19:08.513Z,27.17
2022-12-16T20:21:29.916Z,22.80
2022-12-16T20:23:53.736Z,25.07
2022-12-16T20:26:15.904Z,22.97
2022-12-16T20:28:51.027Z,26.53
2022-12-16T20:31:12.346Z,24.87
2022-12-16T20:33:34.232Z,33.70
2022-12-16T20:35:56.133Z,31.03
2022-12-16T20:38:16.908Z,24.83
2022-12-16T20:40:46.843Z,28.03
2022-12-16T20:43:07.115Z,27.60
2022-12-16T20:45:28.721Z,28.77
2022-12-16T20:47:49.022Z,29.67
2022-12-16T20:50:09.286Z,33.23
2022-12-16T20:52:29.826Z,29.80
2022-12-16T20:54:58.639Z,28.63
2022-12-16T20:57:20.484Z,26.53
2022-12-16T20:59:41.168Z,31.87
2022-12-16T21:02:22.553Z,37.97
2022-12-16T21:04:41.540Z,37.20
2022-12-16T21:07:01.854Z,33.93
2022-12-16T21:09:22.689Z,41.97
2022-12-16T21:11:43.251Z,40.83
2022-12-16T21:14:05.534Z,35.87
2022-12-16T21:16:25.896Z,34.03
2022-12-16T21:18:46.301Z,32.03
2022-12-16T21:21:10.897Z,35.90
2022-12-16T21:23:31.298Z,33.97
2022-12-16T21:25:51.741Z,30.30
2022-12-16T21:28:15.199Z,33.00
2022-12-16T21:30:37.271Z,36.27
2022-12-16T21:32:57.624Z,29.90
2022-12-16T21:35:18.663Z,40.03
2022-12-16T21:37:39.064Z,38.77
2022-12-16T21:40:01.210Z,32.40
2022-12-16T21:42:21.659Z,40.37
2022-12-16T21:44:42.070Z,40.07
2022-12-16T21:47:03.655Z,40.07
2022-12-16T21:49:35.628Z,44.80
2022-12-16T21:51:56.608Z,48.43
2022-12-16T21:54:17.909Z,53.13
2022-12-16T21:56:38.106Z,49.00
2022-12-16T21:58:58.520Z,49.33
2022-12-16T22:01:19.296Z,42.27
2022-12-16T22:03:41.357Z,44.23
2022-12-16T22:06:02.189Z,38.27
2022-12-16T22:08:25.123Z,40.47
2022-12-16T22:10:45.644Z,42.50
2022-12-16T22:13:05.983Z,39.13
2022-12-16T22:15:27.675Z,42.67
2022-12-16T22:17:51.746Z,44.57
2022-12-16T22:20:16.638Z,42.73
2022-12-16T22:22:33.698Z,41.57
2022-12-16T22:24:54.357Z,46.83
2022-12-16T22:27:17.493Z,42.40
2022-12-16T22:29:52.403Z,39.17
2022-12-16T22:32:16.724Z,37.03
2022-12-16T22:34:36.976Z,36.03
2022-12-16T22:36:58.635Z,37.50
2022-12-16T22:39:19.184Z,36.57
2022-12-16T22:41:39.824Z,37.40
2022-12-16T22:44:01.788Z,35.73
2022-12-16T22:46:22.432Z,37.37
2022-12-16T22:48:42.975Z,30.40
2022-12-16T22:51:03.201Z,30.80
2022-12-16T22:53:24.773Z,38.73
2022-12-16T22:55:45.344Z,33.20
2022-12-16T22:58:17.259Z,41.77
2022-12-16T23:00:38.081Z,38.70
2022-12-16T23:02:58.699Z,39.17
2022-12-16T23:05:25.365Z,43.23
2022-12-16T23:07:47.957Z,44.63
2022-12-16T23:10:09.648Z,42.10
2022-12-16T23:12:30.182Z,34.57
2022-12-16T23:14:50.852Z,39.93
2022-12-16T23:17:12.103Z,34.40
2022-12-16T23:19:32.526Z,40.47
2022-12-16T23:21:53.022Z,34.60
2022-12-16T23:24:14.491Z,38.03
2022-12-16T23:26:36.548Z,37.03
2022-12-16T23:28:56.819Z,36.87
2022-12-16T23:31:17.348Z,35.27
2022-12-16T23:33:37.882Z,33.83
2022-12-16T23:35:58.250Z,35.30
2022-12-16T23:38:28.516Z,35.93
2022-12-16T23:40:48.841Z,35.37
2022-12-16T23:43:13.039Z,29.63
2022-12-16T23:45:33.725Z,33.73
2022-12-16T23:47:54.279Z,38.53
2022-12-16T23:50:16.764Z,36.07
2022-12-16T23:52:37.290Z,35.10
2022-12-16T23:54:57.627Z,32.27
2022-12-16T23:57:17.919Z,31.30
2022-12-16T23:59:39.784Z,29.67
